sensor_id;sensor_type;location;lat;lon;timestamp;P1;durP1;ratioP1;P2;durP2;ratioP2
27586;SDS011;15019;49.002;8.420;2022-08-01T00:00:15;3.63;;;2.40;;
27586;SDS011;15019;49.002;8.420;2022-08-01T00:02:40;3.75;;;2.60;;
27586;SDS011;15019;49.002;8.420;2022-08-01T00:05:06;5.15;;;2.80;;
27586;SDS011;15019;49.002;8.420;2022-08-01T00:07:33;4.43;;;2.50;;
27586;SDS011;15019;49.002;8.420;2022-08-01T00:09:59;3.65;;;2.45;;
27586;SDS011;15019;49.002;8.420;2022-08-01T00:12:25;6.38;;;2.80;;
27586;SDS011;15019;49.002;8.420;2022-08-01T00:14:50;6.30;;;2.42;;
27586;SDS011;15019;49.002;8.420;2022-08-01T00:17:15;5.85;;;2.40;;
27586;SDS011;15019;49.002;8.420;2022-08-01T00:19:41;4.57;;;2.58;;
27586;SDS011;15019;49.002;8.420;2022-08-01T00:22:06;5.50;;;2.45;;
27586;SDS011;15019;49.002;8.420;2022-08-01T00:24:31;3.45;;;2.45;;
27586;SDS011;15019;49.002;8.420;2022-08-01T00:26:57;5.05;;;2.58;;
27586;SDS011;15019;49.002;8.420;2022-08-01T00:29:22;3.65;;;2.50;;
27586;SDS011;15019;49.002;8.420;2022-08-01T00:31:47;4.20;;;2.50;;
27586;SDS011;15019;49.002;8.420;2022-08-01T00:34:13;4.88;;;2.45;;
27586;SDS011;15019;49.002;8.420;2022-08-01T00:36:38;4.25;;;2.40;;
27586;SDS011;15019;49.002;8.420;2022-08-01T00:39:03;4.68;;;2.30;;
27586;SDS011;15019;49.002;8.420;2022-08-01T00:41:29;3.97;;;2.38;;
27586;SDS011;15019;49.002;8.420;2022-08-01T00:43:54;6.20;;;2.47;;
27586;SDS011;15019;49.002;8.420;2022-08-01T00:46:19;4.70;;;2.83;;
27586;SDS011;15019;49.002;8.420;2022-08-01T00:48:45;3.45;;;2.30;;
27586;SDS011;15019;49.002;8.420;2022-08-01T00:51:10;5.35;;;2.40;;
27586;SDS011;15019;49.002;8.420;2022-08-01T00:53:38;4.30;;;2.50;;
27586;SDS011;15019;49.002;8.420;2022-08-01T00:56:04;3.78;;;2.53;;
27586;SDS011;15019;49.002;8.420;2022-08-01T00:58:29;3.65;;;2.47;;
27586;SDS011;15019;49.002;8.420;2022-08-01T01:00:55;3.67;;;2.25;;
27586;SDS011;15019;49.002;8.420;2022-08-01T01:03:21;4.18;;;2.70;;
27586;SDS011;15019;49.002;8.420;2022-08-01T01:08:39;5.10;;;2.87;;
27586;SDS011;15019;49.002;8.420;2022-08-01T01:11:17;3.70;;;2.40;;
27586;SDS011;15019;49.002;8.420;2022-08-01T01:13:52;3.95;;;2.40;;
27586;SDS011;15019;49.002;8.420;2022-08-01T01:16:22;4.68;;;2.55;;
27586;SDS011;15019;49.002;8.420;2022-08-01T01:18:55;4.07;;;2.60;;
27586;SDS011;15019;49.002;8.420;2022-08-01T01:30:05;2.97;;;2.63;;
27586;SDS011;15019;49.002;8.420;2022-08-01T01:32:32;3.65;;;2.60;;
27586;SDS011;15019;49.002;8.420;2022-08-01T01:35:05;4.38;;;2.65;;
27586;SDS011;15019;49.002;8.420;2022-08-01T01:37:34;5.00;;;2.60;;
27586;SDS011;15019;49.002;8.420;2022-08-01T01:40:03;3.35;;;2.60;;
27586;SDS011;15019;49.002;8.420;2022-08-01T01:42:30;5.00;;;3.10;;
27586;SDS011;15019;49.002;8.420;2022-08-01T01:44:58;5.57;;;2.83;;
27586;SDS011;15019;49.002;8.420;2022-08-01T01:47:25;4.15;;;2.58;;
27586;SDS011;15019;49.002;8.420;2022-08-01T01:49:53;4.25;;;2.70;;
27586;SDS011;15019;49.002;8.420;2022-08-01T01:52:22;5.32;;;2.60;;
27586;SDS011;15019;49.002;8.420;2022-08-01T01:54:49;5.03;;;2.90;;
27586;SDS011;15019;49.002;8.420;2022-08-01T01:59:43;5.53;;;2.60;;
27586;SDS011;15019;49.002;8.420;2022-08-01T02:02:10;4.28;;;2.40;;
27586;SDS011;15019;49.002;8.420;2022-08-01T02:04:39;7.05;;;2.80;;
27586;SDS011;15019;49.002;8.420;2022-08-01T02:07:06;3.85;;;2.70;;
27586;SDS011;15019;49.002;8.420;2022-08-01T02:09:34;5.78;;;2.80;;
27586;SDS011;15019;49.002;8.420;2022-08-01T02:14:28;3.30;;;2.58;;
27586;SDS011;15019;49.002;8.420;2022-08-01T02:16:54;5.97;;;2.75;;
27586;SDS011;15019;49.002;8.420;2022-08-01T02:21:49;3.70;;;2.67;;
27586;SDS011;15019;49.002;8.420;2022-08-01T02:27:21;5.78;;;2.88;;
27586;SDS011;15019;49.002;8.420;2022-08-01T02:30:14;3.78;;;2.80;;
27586;SDS011;15019;49.002;8.420;2022-08-01T02:32:44;6.75;;;3.20;;
27586;SDS011;15019;49.002;8.420;2022-08-01T02:35:13;5.28;;;2.75;;
27586;SDS011;15019;49.002;8.420;2022-08-01T02:37:45;5.25;;;2.88;;
27586;SDS011;15019;49.002;8.420;2022-08-01T02:40:13;3.92;;;2.78;;
27586;SDS011;15019;49.002;8.420;2022-08-01T02:42:42;4.43;;;2.80;;
27586;SDS011;15019;49.002;8.420;2022-08-01T02:45:10;5.35;;;2.85;;
27586;SDS011;15019;49.002;8.420;2022-08-01T02:47:37;3.30;;;2.38;;
27586;SDS011;15019;49.002;8.420;2022-08-01T02:50:04;4.95;;;2.88;;
27586;SDS011;15019;49.002;8.420;2022-08-01T02:52:30;5.45;;;2.88;;
27586;SDS011;15019;49.002;8.420;2022-08-01T02:54:57;4.50;;;2.97;;
27586;SDS011;15019;49.002;8.420;2022-08-01T02:57:24;5.10;;;2.63;;
27586;SDS011;15019;49.002;8.420;2022-08-01T02:59:51;7.38;;;3.00;;
27586;SDS011;15019;49.002;8.420;2022-08-01T03:02:18;3.60;;;2.85;;
27586;SDS011;15019;49.002;8.420;2022-08-01T03:04:46;7.15;;;3.35;;
27586;SDS011;15019;49.002;8.420;2022-08-01T03:07:14;4.47;;;3.15;;
27586;SDS011;15019;49.002;8.420;2022-08-01T03:09:42;4.88;;;2.80;;
27586;SDS011;15019;49.002;8.420;2022-08-01T03:12:10;5.20;;;3.17;;
27586;SDS011;15019;49.002;8.420;2022-08-01T03:14:39;3.55;;;2.80;;
27586;SDS011;15019;49.002;8.420;2022-08-01T03:19:33;4.97;;;2.88;;
27586;SDS011;15019;49.002;8.420;2022-08-01T03:21:59;4.32;;;2.90;;
27586;SDS011;15019;49.002;8.420;2022-08-01T03:24:26;4.78;;;2.80;;
27586;SDS011;15019;49.002;8.420;2022-08-01T03:26:53;6.07;;;2.83;;
27586;SDS011;15019;49.002;8.420;2022-08-01T03:29:22;6.70;;;2.95;;
27586;SDS011;15019;49.002;8.420;2022-08-01T03:31:50;4.63;;;3.20;;
27586;SDS011;15019;49.002;8.420;2022-08-01T03:34:16;7.35;;;3.15;;
27586;SDS011;15019;49.002;8.420;2022-08-01T03:37:05;4.80;;;2.95;;
27586;SDS011;15019;49.002;8.420;2022-08-01T03:39:34;4.60;;;2.97;;
27586;SDS011;15019;49.002;8.420;2022-08-01T03:42:07;6.30;;;3.30;;
27586;SDS011;15019;49.002;8.420;2022-08-01T03:44:37;6.82;;;3.10;;
27586;SDS011;15019;49.002;8.420;2022-08-01T03:47:05;4.70;;;3.20;;
27586;SDS011;15019;49.002;8.420;2022-08-01T03:49:35;9.63;;;3.50;;
27586;SDS011;15019;49.002;8.420;2022-08-01T03:52:06;5.15;;;3.38;;
27586;SDS011;15019;49.002;8.420;2022-08-01T03:54:34;5.47;;;3.10;;
27586;SDS011;15019;49.002;8.420;2022-08-01T03:57:02;4.18;;;3.35;;
27586;SDS011;15019;49.002;8.420;2022-08-01T03:59:30;4.70;;;3.13;;
27586;SDS011;15019;49.002;8.420;2022-08-01T04:01:56;4.22;;;2.90;;
27586;SDS011;15019;49.002;8.420;2022-08-01T04:04:23;4.25;;;3.15;;
27586;SDS011;15019;49.002;8.420;2022-08-01T04:06:49;5.35;;;3.40;;
27586;SDS011;15019;49.002;8.420;2022-08-01T04:09:15;5.70;;;3.03;;
27586;SDS011;15019;49.002;8.420;2022-08-01T04:11:41;5.82;;;3.50;;
27586;SDS011;15019;49.002;8.420;2022-08-01T04:14:06;5.80;;;3.53;;
27586;SDS011;15019;49.002;8.420;2022-08-01T04:16:31;6.15;;;3.13;;
27586;SDS011;15019;49.002;8.420;2022-08-01T04:18:57;5.25;;;3.10;;
27586;SDS011;15019;49.002;8.420;2022-08-01T04:21:23;4.57;;;3.20;;
27586;SDS011;15019;49.002;8.420;2022-08-01T04:23:50;10.40;;;3.60;;
27586;SDS011;15019;49.002;8.420;2022-08-01T04:26:18;7.60;;;6.35;;
27586;SDS011;15019;49.002;8.420;2022-08-01T04:28:46;5.88;;;3.20;;
27586;SDS011;15019;49.002;8.420;2022-08-01T04:31:13;4.68;;;3.33;;
27586;SDS011;15019;49.002;8.420;2022-08-01T04:33:42;3.97;;;3.30;;
27586;SDS011;15019;49.002;8.420;2022-08-01T04:36:10;6.35;;;3.88;;
27586;SDS011;15019;49.002;8.420;2022-08-01T04:38:38;6.40;;;4.55;;
27586;SDS011;15019;49.002;8.420;2022-08-01T04:45:59;6.57;;;2.93;;
27586;SDS011;15019;49.002;8.420;2022-08-01T04:48:28;5.45;;;3.53;;
27586;SDS011;15019;49.002;8.420;2022-08-01T04:50:53;5.20;;;3.97;;
27586;SDS011;15019;49.002;8.420;2022-08-01T04:53:19;5.25;;;3.40;;
27586;SDS011;15019;49.002;8.420;2022-08-01T04:55:45;4.95;;;3.45;;
27586;SDS011;15019;49.002;8.420;2022-08-01T04:58:11;6.65;;;3.58;;
27586;SDS011;15019;49.002;8.420;2022-08-01T05:00:36;6.90;;;3.78;;
27586;SDS011;15019;49.002;8.420;2022-08-01T05:03:02;4.63;;;3.58;;
27586;SDS011;15019;49.002;8.420;2022-08-01T05:05:27;7.15;;;3.95;;
27586;SDS011;15019;49.002;8.420;2022-08-01T05:07:53;5.95;;;3.60;;
27586;SDS011;15019;49.002;8.420;2022-08-01T05:10:18;6.10;;;3.70;;
27586;SDS011;15019;49.002;8.420;2022-08-01T05:12:43;5.55;;;3.50;;
27586;SDS011;15019;49.002;8.420;2022-08-01T05:15:09;6.50;;;3.60;;
27586;SDS011;15019;49.002;8.420;2022-08-01T05:17:34;5.45;;;3.60;;
27586;SDS011;15019;49.002;8.420;2022-08-01T05:19:59;6.38;;;3.60;;
27586;SDS011;15019;49.002;8.420;2022-08-01T05:22:24;5.82;;;3.40;;
27586;SDS011;15019;49.002;8.420;2022-08-01T05:24:50;7.10;;;3.70;;
27586;SDS011;15019;49.002;8.420;2022-08-01T05:27:15;10.95;;;3.50;;
27586;SDS011;15019;49.002;8.420;2022-08-01T05:29:40;5.88;;;3.28;;
27586;SDS011;15019;49.002;8.420;2022-08-01T05:32:06;7.10;;;3.80;;
27586;SDS011;15019;49.002;8.420;2022-08-01T05:34:31;7.90;;;3.72;;
27586;SDS011;15019;49.002;8.420;2022-08-01T05:36:56;5.65;;;3.50;;
27586;SDS011;15019;49.002;8.420;2022-08-01T05:39:22;6.80;;;3.75;;
27586;SDS011;15019;49.002;8.420;2022-08-01T05:41:47;10.68;;;3.67;;
27586;SDS011;15019;49.002;8.420;2022-08-01T05:44:12;8.13;;;3.50;;
27586;SDS011;15019;49.002;8.420;2022-08-01T05:46:38;7.22;;;3.38;;
27586;SDS011;15019;49.002;8.420;2022-08-01T05:49:04;6.25;;;3.40;;
27586;SDS011;15019;49.002;8.420;2022-08-01T05:51:30;6.65;;;3.33;;
27586;SDS011;15019;49.002;8.420;2022-08-01T05:53:56;5.68;;;3.13;;
27586;SDS011;15019;49.002;8.420;2022-08-01T05:56:22;6.25;;;3.22;;
27586;SDS011;15019;49.002;8.420;2022-08-01T05:58:47;4.35;;;3.25;;
27586;SDS011;15019;49.002;8.420;2022-08-01T06:01:14;6.07;;;3.13;;
27586;SDS011;15019;49.002;8.420;2022-08-01T06:03:39;6.90;;;3.10;;
27586;SDS011;15019;49.002;8.420;2022-08-01T06:06:04;5.22;;;2.80;;
27586;SDS011;15019;49.002;8.420;2022-08-01T06:08:30;4.22;;;3.03;;
27586;SDS011;15019;49.002;8.420;2022-08-01T06:10:55;7.63;;;2.70;;
27586;SDS011;15019;49.002;8.420;2022-08-01T06:13:21;4.22;;;3.00;;
27586;SDS011;15019;49.002;8.420;2022-08-01T06:15:47;4.53;;;2.80;;
27586;SDS011;15019;49.002;8.420;2022-08-01T06:18:13;5.72;;;2.65;;
27586;SDS011;15019;49.002;8.420;2022-08-01T06:20:39;4.50;;;2.70;;
27586;SDS011;15019;49.002;8.420;2022-08-01T06:23:05;5.35;;;2.90;;
27586;SDS011;15019;49.002;8.420;2022-08-01T06:25:30;4.60;;;2.70;;
27586;SDS011;15019;49.002;8.420;2022-08-01T06:27:56;6.28;;;2.70;;
27586;SDS011;15019;49.002;8.420;2022-08-01T06:30:21;10.73;;;2.60;;
27586;SDS011;15019;49.002;8.420;2022-08-01T06:32:47;16.58;;;3.40;;
27586;SDS011;15019;49.002;8.420;2022-08-01T06:35:12;5.22;;;2.83;;
27586;SDS011;15019;49.002;8.420;2022-08-01T06:37:38;3.38;;;2.30;;
27586;SDS011;15019;49.002;8.420;2022-08-01T06:40:07;7.22;;;2.78;;
27586;SDS011;15019;49.002;8.420;2022-08-01T06:42:34;4.32;;;2.72;;
27586;SDS011;15019;49.002;8.420;2022-08-01T06:47:29;6.22;;;2.45;;
27586;SDS011;15019;49.002;8.420;2022-08-01T06:49:55;4.18;;;2.33;;
27586;SDS011;15019;49.002;8.420;2022-08-01T06:52:20;3.90;;;2.42;;
27586;SDS011;15019;49.002;8.420;2022-08-01T06:54:45;3.65;;;2.42;;
27586;SDS011;15019;49.002;8.420;2022-08-01T06:57:11;8.20;;;2.42;;
27586;SDS011;15019;49.002;8.420;2022-08-01T06:59:36;4.40;;;2.50;;
27586;SDS011;15019;49.002;8.420;2022-08-01T07:02:01;2.92;;;2.20;;
27586;SDS011;15019;49.002;8.420;2022-08-01T07:04:27;5.03;;;2.45;;
27586;SDS011;15019;49.002;8.420;2022-08-01T07:06:52;3.72;;;2.03;;
27586;SDS011;15019;49.002;8.420;2022-08-01T07:09:17;5.82;;;2.50;;
27586;SDS011;15019;49.002;8.420;2022-08-01T07:11:43;8.63;;;2.63;;
27586;SDS011;15019;49.002;8.420;2022-08-01T07:14:08;3.70;;;2.55;;
27586;SDS011;15019;49.002;8.420;2022-08-01T07:16:33;4.18;;;2.70;;
27586;SDS011;15019;49.002;8.420;2022-08-01T07:18:58;4.45;;;2.20;;
27586;SDS011;15019;49.002;8.420;2022-08-01T07:21:24;7.38;;;2.50;;
27586;SDS011;15019;49.002;8.420;2022-08-01T07:23:49;3.65;;;2.47;;
27586;SDS011;15019;49.002;8.420;2022-08-01T07:26:14;6.05;;;2.80;;
27586;SDS011;15019;49.002;8.420;2022-08-01T07:28:40;6.93;;;3.78;;
27586;SDS011;15019;49.002;8.420;2022-08-01T07:31:05;7.10;;;3.00;;
27586;SDS011;15019;49.002;8.420;2022-08-01T07:33:30;7.00;;;3.30;;
27586;SDS011;15019;49.002;8.420;2022-08-01T07:35:56;8.52;;;3.75;;
27586;SDS011;15019;49.002;8.420;2022-08-01T07:38:21;4.57;;;3.15;;
27586;SDS011;15019;49.002;8.420;2022-08-01T07:40:46;5.45;;;3.28;;
27586;SDS011;15019;49.002;8.420;2022-08-01T07:43:12;6.20;;;3.75;;
27586;SDS011;15019;49.002;8.420;2022-08-01T07:45:37;6.40;;;3.80;;
27586;SDS011;15019;49.002;8.420;2022-08-01T07:48:03;7.50;;;3.72;;
27586;SDS011;15019;49.002;8.420;2022-08-01T07:50:29;7.20;;;3.53;;
27586;SDS011;15019;49.002;8.420;2022-08-01T07:52:55;5.82;;;3.70;;
27586;SDS011;15019;49.002;8.420;2022-08-01T07:55:20;5.93;;;3.30;;
27586;SDS011;15019;49.002;8.420;2022-08-01T07:57:46;5.90;;;3.28;;
27586;SDS011;15019;49.002;8.420;2022-08-01T08:00:11;5.55;;;2.95;;
27586;SDS011;15019;49.002;8.420;2022-08-01T08:02:37;7.85;;;3.00;;
27586;SDS011;15019;49.002;8.420;2022-08-01T08:05:03;4.50;;;2.80;;
27586;SDS011;15019;49.002;8.420;2022-08-01T08:07:28;5.43;;;2.75;;
27586;SDS011;15019;49.002;8.420;2022-08-01T08:09:54;7.72;;;2.90;;
27586;SDS011;15019;49.002;8.420;2022-08-01T08:12:19;3.47;;;2.40;;
27586;SDS011;15019;49.002;8.420;2022-08-01T08:14:44;4.05;;;2.50;;
27586;SDS011;15019;49.002;8.420;2022-08-01T08:17:09;4.82;;;2.50;;
27586;SDS011;15019;49.002;8.420;2022-08-01T08:19:35;7.47;;;2.47;;
27586;SDS011;15019;49.002;8.420;2022-08-01T08:22:00;5.78;;;2.35;;
27586;SDS011;15019;49.002;8.420;2022-08-01T08:24:26;3.90;;;1.98;;
27586;SDS011;15019;49.002;8.420;2022-08-01T08:26:52;2.65;;;1.50;;
27586;SDS011;15019;49.002;8.420;2022-08-01T08:31:45;4.25;;;1.73;;
27586;SDS011;15019;49.002;8.420;2022-08-01T08:34:10;3.78;;;1.85;;
27586;SDS011;15019;49.002;8.420;2022-08-01T08:36:36;7.72;;;1.90;;
27586;SDS011;15019;49.002;8.420;2022-08-01T08:39:02;3.60;;;1.98;;
27586;SDS011;15019;49.002;8.420;2022-08-01T08:41:32;3.25;;;1.65;;
27586;SDS011;15019;49.002;8.420;2022-08-01T08:44:00;5.78;;;1.90;;
27586;SDS011;15019;49.002;8.420;2022-08-01T08:46:29;2.53;;;1.60;;
27586;SDS011;15019;49.002;8.420;2022-08-01T08:48:56;3.00;;;1.67;;
27586;SDS011;15019;49.002;8.420;2022-08-01T08:51:22;3.13;;;1.80;;
27586;SDS011;15019;49.002;8.420;2022-08-01T08:53:50;6.28;;;2.00;;
27586;SDS011;15019;49.002;8.420;2022-08-01T08:56:18;5.57;;;1.92;;
27586;SDS011;15019;49.002;8.420;2022-08-01T08:58:44;4.55;;;1.85;;
27586;SDS011;15019;49.002;8.420;2022-08-01T09:01:10;4.78;;;1.63;;
27586;SDS011;15019;49.002;8.420;2022-08-01T09:03:36;5.28;;;1.80;;
27586;SDS011;15019;49.002;8.420;2022-08-01T09:06:02;2.50;;;1.50;;
27586;SDS011;15019;49.002;8.420;2022-08-01T09:08:28;4.20;;;1.63;;
27586;SDS011;15019;49.002;8.420;2022-08-01T09:10:54;4.28;;;1.75;;
27586;SDS011;15019;49.002;8.420;2022-08-01T09:13:19;4.50;;;1.58;;
27586;SDS011;15019;49.002;8.420;2022-08-01T09:15:52;7.47;;;2.00;;
27586;SDS011;15019;49.002;8.420;2022-08-01T09:18:26;5.03;;;1.85;;
27586;SDS011;15019;49.002;8.420;2022-08-01T09:20:52;5.10;;;1.50;;
27586;SDS011;15019;49.002;8.420;2022-08-01T09:23:34;3.78;;;1.80;;
27586;SDS011;15019;49.002;8.420;2022-08-01T09:26:01;2.25;;;1.40;;
27586;SDS011;15019;49.002;8.420;2022-08-01T09:28:27;1.95;;;1.50;;
27586;SDS011;15019;49.002;8.420;2022-08-01T09:30:55;2.88;;;1.50;;
27586;SDS011;15019;49.002;8.420;2022-08-01T09:33:21;3.97;;;1.70;;
27586;SDS011;15019;49.002;8.420;2022-08-01T09:35:53;2.33;;;1.55;;
27586;SDS011;15019;49.002;8.420;2022-08-01T09:38:21;6.93;;;2.08;;
27586;SDS011;15019;49.002;8.420;2022-08-01T09:40:51;5.82;;;1.45;;
27586;SDS011;15019;49.002;8.420;2022-08-01T09:43:22;3.13;;;1.40;;
27586;SDS011;15019;49.002;8.420;2022-08-01T09:45:49;2.72;;;1.40;;
27586;SDS011;15019;49.002;8.420;2022-08-01T09:48:15;2.45;;;1.52;;
27586;SDS011;15019;49.002;8.420;2022-08-01T09:50:46;2.80;;;1.67;;
27586;SDS011;15019;49.002;8.420;2022-08-01T09:53:12;4.30;;;1.70;;
27586;SDS011;15019;49.002;8.420;2022-08-01T09:55:39;2.85;;;1.60;;
27586;SDS011;15019;49.002;8.420;2022-08-01T09:58:04;4.22;;;1.60;;
27586;SDS011;15019;49.002;8.420;2022-08-01T10:00:31;2.47;;;1.80;;
27586;SDS011;15019;49.002;8.420;2022-08-01T10:02:58;3.08;;;1.95;;
27586;SDS011;15019;49.002;8.420;2022-08-01T10:05:30;2.22;;;1.80;;
27586;SDS011;15019;49.002;8.420;2022-08-01T10:07:58;2.92;;;1.70;;
27586;SDS011;15019;49.002;8.420;2022-08-01T10:10:24;4.75;;;1.80;;
27586;SDS011;15019;49.002;8.420;2022-08-01T10:12:51;4.07;;;1.45;;
27586;SDS011;15019;49.002;8.420;2022-08-01T10:15:17;5.15;;;1.60;;
27586;SDS011;15019;49.002;8.420;2022-08-01T10:17:45;2.75;;;1.80;;
27586;SDS011;15019;49.002;8.420;2022-08-01T10:20:22;2.70;;;1.83;;
27586;SDS011;15019;49.002;8.420;2022-08-01T10:22:55;3.63;;;1.50;;
27586;SDS011;15019;49.002;8.420;2022-08-01T10:25:27;3.63;;;1.80;;
27586;SDS011;15019;49.002;8.420;2022-08-01T10:27:53;7.50;;;1.70;;
27586;SDS011;15019;49.002;8.420;2022-08-01T10:30:19;4.68;;;1.50;;
27586;SDS011;15019;49.002;8.420;2022-08-01T10:32:45;3.28;;;1.70;;
27586;SDS011;15019;49.002;8.420;2022-08-01T10:35:11;3.25;;;1.63;;
27586;SDS011;15019;49.002;8.420;2022-08-01T10:37:36;2.20;;;1.70;;
27586;SDS011;15019;49.002;8.420;2022-08-01T10:40:02;4.43;;;1.77;;
27586;SDS011;15019;49.002;8.420;2022-08-01T10:42:28;2.35;;;1.42;;
27586;SDS011;15019;49.002;8.420;2022-08-01T10:44:54;3.00;;;1.50;;
27586;SDS011;15019;49.002;8.420;2022-08-01T10:47:21;2.90;;;1.70;;
27586;SDS011;15019;49.002;8.420;2022-08-01T10:49:58;4.10;;;1.73;;
27586;SDS011;15019;49.002;8.420;2022-08-01T10:52:32;3.75;;;1.65;;
27586;SDS011;15019;49.002;8.420;2022-08-01T10:55:04;5.00;;;1.90;;
27586;SDS011;15019;49.002;8.420;2022-08-01T10:57:49;2.25;;;1.60;;
27586;SDS011;15019;49.002;8.420;2022-08-01T11:00:18;2.90;;;2.30;;
27586;SDS011;15019;49.002;8.420;2022-08-01T11:03:00;4.53;;;1.83;;
27586;SDS011;15019;49.002;8.420;2022-08-01T11:05:27;8.00;;;1.95;;
27586;SDS011;15019;49.002;8.420;2022-08-01T11:07:55;3.63;;;1.67;;
27586;SDS011;15019;49.002;8.420;2022-08-01T11:10:33;3.75;;;2.00;;
27586;SDS011;15019;49.002;8.420;2022-08-01T11:13:00;3.70;;;2.10;;
27586;SDS011;15019;49.002;8.420;2022-08-01T11:15:26;2.75;;;2.03;;
27586;SDS011;15019;49.002;8.420;2022-08-01T11:17:51;4.18;;;1.63;;
27586;SDS011;15019;49.002;8.420;2022-08-01T11:20:27;2.45;;;1.50;;
27586;SDS011;15019;49.002;8.420;2022-08-01T11:25:22;4.20;;;2.00;;
27586;SDS011;15019;49.002;8.420;2022-08-01T11:27:48;5.95;;;1.90;;
27586;SDS011;15019;49.002;8.420;2022-08-01T11:32:48;4.40;;;1.60;;
27586;SDS011;15019;49.002;8.420;2022-08-01T11:35:16;2.60;;;1.60;;
27586;SDS011;15019;49.002;8.420;2022-08-01T11:37:42;2.33;;;1.80;;
27586;SDS011;15019;49.002;8.420;2022-08-01T11:40:23;5.07;;;1.80;;
27586;SDS011;15019;49.002;8.420;2022-08-01T11:43:16;2.08;;;1.60;;
27586;SDS011;15019;49.002;8.420;2022-08-01T11:45:55;3.92;;;1.85;;
27586;SDS011;15019;49.002;8.420;2022-08-01T11:48:21;2.47;;;1.50;;
27586;SDS011;15019;49.002;8.420;2022-08-01T11:50:49;2.50;;;1.60;;
27586;SDS011;15019;49.002;8.420;2022-08-01T11:53:16;4.32;;;1.80;;
27586;SDS011;15019;49.002;8.420;2022-08-01T11:55:46;3.67;;;1.88;;
27586;SDS011;15019;49.002;8.420;2022-08-01T11:58:13;3.75;;;2.00;;
27586;SDS011;15019;49.002;8.420;2022-08-01T12:00:38;3.13;;;1.75;;
27586;SDS011;15019;49.002;8.420;2022-08-01T12:03:05;4.70;;;1.90;;
27586;SDS011;15019;49.002;8.420;2022-08-01T12:05:32;3.10;;;1.92;;
27586;SDS011;15019;49.002;8.420;2022-08-01T12:10:26;4.57;;;1.90;;
27586;SDS011;15019;49.002;8.420;2022-08-01T12:12:59;6.38;;;2.03;;
27586;SDS011;15019;49.002;8.420;2022-08-01T12:15:29;2.88;;;1.60;;
27586;SDS011;15019;49.002;8.420;2022-08-01T12:17:56;2.65;;;1.80;;
27586;SDS011;15019;49.002;8.420;2022-08-01T12:20:24;3.38;;;1.77;;
27586;SDS011;15019;49.002;8.420;2022-08-01T12:25:20;2.05;;;1.60;;
27586;SDS011;15019;49.002;8.420;2022-08-01T12:27:46;2.55;;;1.63;;
27586;SDS011;15019;49.002;8.420;2022-08-01T12:30:17;3.42;;;1.63;;
27586;SDS011;15019;49.002;8.420;2022-08-01T12:32:45;3.30;;;1.80;;
27586;SDS011;15019;49.002;8.420;2022-08-01T12:35:15;4.03;;;1.70;;
27586;SDS011;15019;49.002;8.420;2022-08-01T12:37:46;3.00;;;1.58;;
27586;SDS011;15019;49.002;8.420;2022-08-01T12:42:40;3.47;;;1.98;;
27586;SDS011;15019;49.002;8.420;2022-08-01T12:45:07;3.50;;;1.80;;
27586;SDS011;15019;49.002;8.420;2022-08-01T12:47:34;2.92;;;1.60;;
27586;SDS011;15019;49.002;8.420;2022-08-01T12:50:01;4.53;;;1.80;;
27586;SDS011;15019;49.002;8.420;2022-08-01T12:52:27;3.85;;;1.83;;
27586;SDS011;15019;49.002;8.420;2022-08-01T12:55:15;1.80;;;1.50;;
27586;SDS011;15019;49.002;8.420;2022-08-01T12:57:48;2.65;;;1.80;;
27586;SDS011;15019;49.002;8.420;2022-08-01T13:02:43;3.70;;;1.77;;
27586;SDS011;15019;49.002;8.420;2022-08-01T13:05:10;4.85;;;1.70;;
27586;SDS011;15019;49.002;8.420;2022-08-01T13:07:40;2.17;;;1.70;;
27586;SDS011;15019;49.002;8.420;2022-08-01T13:10:23;3.55;;;1.60;;
27586;SDS011;15019;49.002;8.420;2022-08-01T13:12:53;2.85;;;1.60;;
27586;SDS011;15019;49.002;8.420;2022-08-01T13:15:21;3.08;;;1.50;;
27586;SDS011;15019;49.002;8.420;2022-08-01T13:17:49;2.65;;;1.65;;
27586;SDS011;15019;49.002;8.420;2022-08-01T13:20:26;2.42;;;1.60;;
27586;SDS011;15019;49.002;8.420;2022-08-01T13:23:14;1.42;;;1.20;;
27586;SDS011;15019;49.002;8.420;2022-08-01T13:25:48;2.75;;;1.70;;
27586;SDS011;15019;49.002;8.420;2022-08-01T13:28:15;5.10;;;1.38;;
27586;SDS011;15019;49.002;8.420;2022-08-01T13:31:17;2.10;;;1.30;;
27586;SDS011;15019;49.002;8.420;2022-08-01T13:33:43;2.03;;;1.40;;
27586;SDS011;15019;49.002;8.420;2022-08-01T13:36:12;2.55;;;1.55;;
27586;SDS011;15019;49.002;8.420;2022-08-01T13:38:39;3.40;;;1.60;;
27586;SDS011;15019;49.002;8.420;2022-08-01T13:41:05;3.60;;;1.58;;
27586;SDS011;15019;49.002;8.420;2022-08-01T13:43:31;4.20;;;1.30;;
27586;SDS011;15019;49.002;8.420;2022-08-01T13:45:56;3.17;;;1.48;;
27586;SDS011;15019;49.002;8.420;2022-08-01T13:48:22;5.22;;;1.25;;
27586;SDS011;15019;49.002;8.420;2022-08-01T13:50:47;5.68;;;1.40;;
27586;SDS011;15019;49.002;8.420;2022-08-01T13:53:12;4.03;;;1.50;;
27586;SDS011;15019;49.002;8.420;2022-08-01T13:55:38;2.45;;;1.50;;
27586;SDS011;15019;49.002;8.420;2022-08-01T13:58:03;2.60;;;1.27;;
27586;SDS011;15019;49.002;8.420;2022-08-01T14:00:28;2.08;;;1.20;;
27586;SDS011;15019;49.002;8.420;2022-08-01T14:02:54;3.35;;;1.30;;
27586;SDS011;15019;49.002;8.420;2022-08-01T14:05:19;1.27;;;1.10;;
27586;SDS011;15019;49.002;8.420;2022-08-01T14:07:44;3.28;;;1.40;;
27586;SDS011;15019;49.002;8.420;2022-08-01T14:10:10;4.85;;;1.20;;
27586;SDS011;15019;49.002;8.420;2022-08-01T14:12:35;1.95;;;1.20;;
27586;SDS011;15019;49.002;8.420;2022-08-01T14:15:00;2.83;;;1.50;;
27586;SDS011;15019;49.002;8.420;2022-08-01T14:17:26;4.50;;;1.05;;
27586;SDS011;15019;49.002;8.420;2022-08-01T14:19:51;5.60;;;1.48;;
27586;SDS011;15019;49.002;8.420;2022-08-01T14:22:16;1.88;;;1.33;;
27586;SDS011;15019;49.002;8.420;2022-08-01T14:24:42;3.42;;;1.40;;
27586;SDS011;15019;49.002;8.420;2022-08-01T14:27:07;1.95;;;1.20;;
27586;SDS011;15019;49.002;8.420;2022-08-01T14:29:32;2.42;;;1.30;;
27586;SDS011;15019;49.002;8.420;2022-08-01T14:31:58;4.70;;;1.42;;
27586;SDS011;15019;49.002;8.420;2022-08-01T14:34:23;2.08;;;1.20;;
27586;SDS011;15019;49.002;8.420;2022-08-01T14:36:48;2.17;;;1.30;;
27586;SDS011;15019;49.002;8.420;2022-08-01T14:39:14;3.72;;;1.10;;
27586;SDS011;15019;49.002;8.420;2022-08-01T14:41:39;4.22;;;1.48;;
27586;SDS011;15019;49.002;8.420;2022-08-01T14:44:04;2.35;;;1.00;;
27586;SDS011;15019;49.002;8.420;2022-08-01T14:46:29;5.13;;;1.10;;
27586;SDS011;15019;49.002;8.420;2022-08-01T14:48:55;4.95;;;1.40;;
27586;SDS011;15019;49.002;8.420;2022-08-01T14:51:20;6.57;;;1.45;;
27586;SDS011;15019;49.002;8.420;2022-08-01T14:53:46;1.75;;;1.20;;
27586;SDS011;15019;49.002;8.420;2022-08-01T14:56:11;1.73;;;1.25;;
27586;SDS011;15019;49.002;8.420;2022-08-01T14:58:36;4.82;;;1.20;;
27586;SDS011;15019;49.002;8.420;2022-08-01T15:01:02;4.85;;;1.00;;
27586;SDS011;15019;49.002;8.420;2022-08-01T15:03:27;1.58;;;1.00;;
27586;SDS011;15019;49.002;8.420;2022-08-01T15:05:52;1.73;;;1.00;;
27586;SDS011;15019;49.002;8.420;2022-08-01T15:08:18;4.15;;;1.02;;
27586;SDS011;15019;49.002;8.420;2022-08-01T15:10:43;7.10;;;1.45;;
27586;SDS011;15019;49.002;8.420;2022-08-01T15:13:08;1.92;;;1.20;;
27586;SDS011;15019;49.002;8.420;2022-08-01T15:15:34;2.75;;;1.30;;
27586;SDS011;15019;49.002;8.420;2022-08-01T15:17:59;2.97;;;1.20;;
27586;SDS011;15019;49.002;8.420;2022-08-01T15:20:24;2.63;;;1.35;;
27586;SDS011;15019;49.002;8.420;2022-08-01T15:22:50;2.55;;;1.08;;
27586;SDS011;15019;49.002;8.420;2022-08-01T15:25:15;4.10;;;1.20;;
27586;SDS011;15019;49.002;8.420;2022-08-01T15:27:40;3.38;;;1.10;;
27586;SDS011;15019;49.002;8.420;2022-08-01T15:30:06;2.28;;;1.20;;
27586;SDS011;15019;49.002;8.420;2022-08-01T15:32:32;2.97;;;1.17;;
27586;SDS011;15019;49.002;8.420;2022-08-01T15:34:57;3.70;;;1.23;;
27586;SDS011;15019;49.002;8.420;2022-08-01T15:37:22;2.95;;;1.08;;